Date,TemperatureHighF,TemperatureAvgF,TemperatureLowF,DewpointHighF,DewpointAvgF,DewpointLowF,HumidityHigh,HumidityAvg,HumidityLow,PressureMaxIn,PressureMinIn,WindSpeedMaxMPH,WindSpeedAvgMPH,GustSpeedMaxMPH,PrecipitationSumIn
2013-5-1,88.5,73.0,53.0,32.2,18.4,0.7,36,15,6,30.20,29.84,18,2,19,0.00
2013-5-2,79.3,65.5,53.7,18.9,11.4,4.4,22,13,6,30.36,30.20,21,4,24,0.00
2013-5-3,84.8,66.9,46.4,23.7,16.6,8.7,32,16,7,30.23,29.88,14,1,19,0.00
2013-5-4,85.8,68.3,47.4,28.6,20.1,10.5,42,19,6,29.91,29.75,20,2,20,0.00
2013-5-5,79.8,70.3,62.5,39.3,25.5,19.3,39,19,12,29.95,29.82,23,3,23,0.00
2013-5-6,75.3,65.7,58.2,43.8,39.6,30.7,51,39,29,30.01,29.91,22,3,24,0.00
2013-5-7,74.6,62.6,51.0,46.8,40.5,32.4,65,46,22,30.02,29.88,28,5,28,0.00
2013-5-8,73.7,60.7,43.8,42.1,37.4,33.4,80,46,24,30.08,29.97,17,1,18,0.00
2013-5-9,77.3,63.6,49.0,40.9,37.2,32.3,57,39,21,30.08,29.96,21,2,26,0.00
2013-5-10,85.8,68.1,50.1,43.2,36.7,26.6,67,37,12,30.18,30.00,22,1,23,0.00
2013-5-11,86.5,71.3,55.4,44.3,35.3,26.7,53,30,12,30.22,30.11,16,1,16,0.00
2013-5-12,91.3,74.2,54.8,37.0,30.4,21.1,46,23,8,30.24,30.05,14,0,16,0.00
2013-5-13,95.0,77.4,55.9,36.4,28.7,19.4,39,20,7,30.18,29.99,16,1,16,0.00
2013-5-14,93.8,77.2,59.7,38.8,32.2,25.1,43,22,9,30.07,29.89,20,1,20,0.00
2013-5-15,90.8,77.1,59.0,40.1,25.9,12.0,43,18,6,30.02,29.91,23,3,23,0.00
2013-5-16,90.1,73.8,53.0,35.3,22.6,15.5,33,17,7,29.99,29.84,27,3,27,0.00
2013-5-17,82.7,73.0,58.7,34.4,28.5,23.6,36,20,13,29.94,29.86,24,3,25,0.00
2013-5-18,83.5,71.4,53.3,38.9,33.8,26.6,47,27,13,29.98,29.85,25,3,25,0.00
2013-5-19,87.2,72.8,53.5,39.6,31.0,22.3,51,25,10,29.97,29.80,33,3,33,0.00
2013-5-20,83.8,71.0,55.4,35.8,26.9,13.5,40,22,8,30.01,29.88,25,3,25,0.00
2013-5-21,90.0,73.5,52.3,36.8,27.9,17.1,48,22,7,30.02,29.83,25,2,25,0.00
2013-5-22,89.6,75.2,53.9,32.2,25.5,20.1,37,18,8,29.87,29.73,30,3,30,0.00
2013-5-23,87.8,76.5,62.2,33.7,25.4,16.2,32,16,7,29.91,29.79,27,4,29,0.00
2013-5-24,88.3,73.0,53.7,36.7,25.2,14.4,40,20,7,30.00,29.89,24,3,29,0.00
2013-5-25,87.7,66.9,52.0,32.6,25.5,13.6,41,25,6,30.01,29.93,21,2,29,0.00
2013-5-28,86.0,76.2,53.4,37.8,33.4,29.7,44,22,13,29.79,29.66,23,4,23,0.00
2013-5-29,90.6,75.7,55.6,41.4,34.3,26.0,53,26,10,29.82,29.69,26,3,27,0.00
2013-5-30,91.2,77.0,58.9,45.7,39.0,33.7,43,27,14,29.92,29.79,31,3,31,0.00
2013-5-31,97.8,81.0,60.9,48.3,41.5,27.1,54,28,8,29.99,29.85,19,1,31,0.00